Detall de PIREP

Printer-friendly versionPDF version

[2013/06/05 10:10:00]
Flight IATA:CT0001
Pilot Number:042
Company ICAO:CAT
Aircraft Type:F100/F
PAX:10
Aircraft Registration:DA
Departing Airport: LEAL
Destination Airport: LEGE
Alternate Airport:LEBL
Online: VATSIM
Route:SOPET B28 EBROX W111 VNV N861 LATRO H110 MAMUK
Flight Level:F240
No Slew and time accel
No pause
Crash detect
Detect pilot in Cockpit between each 30 and 45 minutes
10:10 Zero fuel Weight: 80840 Lbs, Fuel Weight: 23589 Lbs
10:10 VATSIM:LEAL 051000Z 05014KT 020V080 9999 FEW030 23/13 Q1014 NOSIG
10:10 VATSIM:LEGE 051000Z 21011KT 190V250 9999 FEW040 23/10 Q1014
10:11 VOICE CATALONIAN
10:22 Parking Brakes off
10:27 Take-off
10:27 Take off Weight: 103819 Lbs
10:27 Wind: 052º @ 014 Knots Heading: 096º
10:27 POS N38º 16´ 55´´ W000º 33´ 24´´
10:27 Gear Up: 158 Knots
10:27 Flaps:2 at 158 Knots
10:28 Flaps:1 at 158 Knots
10:29 Flaps:0 at 186 Knots
10:42 Wind:081º@023 Knots Heading: 356º Ground Speed: 382 Knots Altitude 17854 ft
10:48 TOC
10:48 Fuel Weight: 20326 Lb
10:57 Wind:102º@020 Knots Heading: 049º Ground Speed: 409 Knots Altitude 24025 ft
11:08 TOD
11:08 Fuel Weight: 18551 Lb
11:12 Wind:164º@007 Knots Heading: 078º Ground Speed: 378 Knots Altitude 21105 ft
11:22 Flaps:1 at 203 Knots
11:25 Flaps:2 at 182 Knots
11:26 Gear Down: 160 Knots
11:27 Wind:178º@013 Knots Heading: 194º Ground Speed: 157 Knots Altitude 2765 ft
11:29 TouchDown:Rate -224 ft/min Speed: 160 Knots
11:30 VATSIM:LEGE 051100Z 18013KT 150V210 9999 FEW030 23/12 Q1014
11:30 Land
11:30 Wind:180º@013 Knots
11:30 Heading: 195º
11:30 Flight Duration: 01:03
11:30 Landing Weight: 98358 Lbs
11:30 POS N41º 54´ 07´´ E002º 45´ 39´´
11:34 Parking brakes on
11:34 Block to Block Duration: 01:12
11:34 Final Fuel: 17317 Lbls
11:34 Spent Fuel: 6272 Lbls
11:34 Flight Length: 353 NM
11:34 TOD Land Length: 101 NM

Exportar CSV

Powered by Drupal - Modified by Danger4k